sensor_id;sensor_type;location;lat;lon;timestamp;P1;durP1;ratioP1;P2;durP2;ratioP2
11346;SDS011;5728;42.722;23.258;2023-07-31T00:01:16;3.22;;;2.92;;
11346;SDS011;5728;42.722;23.258;2023-07-31T00:03:43;4.43;;;2.92;;
11346;SDS011;5728;42.722;23.258;2023-07-31T00:06:12;4.55;;;3.28;;
11346;SDS011;5728;42.722;23.258;2023-07-31T00:08:39;4.10;;;3.17;;
11346;SDS011;5728;42.722;23.258;2023-07-31T00:11:06;3.75;;;3.20;;
11346;SDS011;5728;42.722;23.258;2023-07-31T00:13:34;3.90;;;3.50;;
11346;SDS011;5728;42.722;23.258;2023-07-31T00:16:01;3.55;;;3.25;;
11346;SDS011;5728;42.722;23.258;2023-07-31T00:18:28;3.50;;;3.20;;
11346;SDS011;5728;42.722;23.258;2023-07-31T00:20:55;3.90;;;3.58;;
11346;SDS011;5728;42.722;23.258;2023-07-31T00:23:21;4.30;;;3.78;;
11346;SDS011;5728;42.722;23.258;2023-07-31T00:25:48;4.15;;;3.67;;
11346;SDS011;5728;42.722;23.258;2023-07-31T00:28:15;5.60;;;3.55;;
11346;SDS011;5728;42.722;23.258;2023-07-31T00:30:43;4.72;;;3.95;;
11346;SDS011;5728;42.722;23.258;2023-07-31T00:33:10;4.72;;;3.92;;
11346;SDS011;5728;42.722;23.258;2023-07-31T00:35:37;3.65;;;3.28;;
11346;SDS011;5728;42.722;23.258;2023-07-31T00:38:04;4.93;;;4.00;;
11346;SDS011;5728;42.722;23.258;2023-07-31T00:40:34;7.00;;;4.50;;
11346;SDS011;5728;42.722;23.258;2023-07-31T00:43:01;5.03;;;4.38;;
11346;SDS011;5728;42.722;23.258;2023-07-31T00:45:28;6.05;;;5.45;;
11346;SDS011;5728;42.722;23.258;2023-07-31T00:47:56;6.68;;;5.60;;
11346;SDS011;5728;42.722;23.258;2023-07-31T00:50:24;8.57;;;6.90;;
11346;SDS011;5728;42.722;23.258;2023-07-31T00:52:51;7.57;;;6.80;;
11346;SDS011;5728;42.722;23.258;2023-07-31T00:55:18;8.55;;;7.55;;
11346;SDS011;5728;42.722;23.258;2023-07-31T00:57:46;10.75;;;9.13;;
11346;SDS011;5728;42.722;23.258;2023-07-31T01:00:15;8.95;;;8.05;;
11346;SDS011;5728;42.722;23.258;2023-07-31T01:02:42;11.00;;;8.18;;
11346;SDS011;5728;42.722;23.258;2023-07-31T01:05:10;10.48;;;9.15;;
11346;SDS011;5728;42.722;23.258;2023-07-31T01:07:39;10.18;;;8.90;;
11346;SDS011;5728;42.722;23.258;2023-07-31T01:10:13;9.63;;;8.38;;
11346;SDS011;5728;42.722;23.258;2023-07-31T01:12:43;11.32;;;9.13;;
11346;SDS011;5728;42.722;23.258;2023-07-31T01:15:11;12.23;;;9.55;;
11346;SDS011;5728;42.722;23.258;2023-07-31T01:17:40;10.75;;;9.43;;
11346;SDS011;5728;42.722;23.258;2023-07-31T01:20:09;13.98;;;10.65;;
11346;SDS011;5728;42.722;23.258;2023-07-31T01:22:47;12.77;;;10.70;;
11346;SDS011;5728;42.722;23.258;2023-07-31T01:25:32;14.57;;;11.20;;
11346;SDS011;5728;42.722;23.258;2023-07-31T01:28:11;14.45;;;11.45;;
11346;SDS011;5728;42.722;23.258;2023-07-31T01:30:41;15.48;;;11.30;;
11346;SDS011;5728;42.722;23.258;2023-07-31T01:33:10;14.43;;;12.25;;
11346;SDS011;5728;42.722;23.258;2023-07-31T01:35:37;13.48;;;11.60;;
11346;SDS011;5728;42.722;23.258;2023-07-31T01:38:05;16.08;;;13.35;;
11346;SDS011;5728;42.722;23.258;2023-07-31T01:40:31;15.63;;;13.70;;
11346;SDS011;5728;42.722;23.258;2023-07-31T01:43:00;18.63;;;14.85;;
11346;SDS011;5728;42.722;23.258;2023-07-31T01:45:26;19.48;;;15.55;;
11346;SDS011;5728;42.722;23.258;2023-07-31T01:47:53;18.42;;;13.90;;
11346;SDS011;5728;42.722;23.258;2023-07-31T01:50:20;19.58;;;15.20;;
11346;SDS011;5728;42.722;23.258;2023-07-31T01:52:47;20.27;;;15.15;;
11346;SDS011;5728;42.722;23.258;2023-07-31T01:55:13;16.48;;;14.40;;
11346;SDS011;5728;42.722;23.258;2023-07-31T01:57:40;19.35;;;16.00;;
11346;SDS011;5728;42.722;23.258;2023-07-31T02:00:09;23.85;;;16.95;;
11346;SDS011;5728;42.722;23.258;2023-07-31T02:02:36;21.08;;;15.48;;
11346;SDS011;5728;42.722;23.258;2023-07-31T02:05:03;20.88;;;16.40;;
11346;SDS011;5728;42.722;23.258;2023-07-31T02:07:30;19.73;;;15.88;;
11346;SDS011;5728;42.722;23.258;2023-07-31T02:09:57;20.35;;;16.67;;
11346;SDS011;5728;42.722;23.258;2023-07-31T02:12:24;20.30;;;16.95;;
11346;SDS011;5728;42.722;23.258;2023-07-31T02:14:51;23.40;;;17.20;;
11346;SDS011;5728;42.722;23.258;2023-07-31T02:17:19;24.35;;;17.27;;
11346;SDS011;5728;42.722;23.258;2023-07-31T02:19:46;22.15;;;17.35;;
11346;SDS011;5728;42.722;23.258;2023-07-31T02:22:13;22.77;;;17.00;;
11346;SDS011;5728;42.722;23.258;2023-07-31T02:24:40;22.38;;;17.58;;
11346;SDS011;5728;42.722;23.258;2023-07-31T02:27:06;18.98;;;15.85;;
11346;SDS011;5728;42.722;23.258;2023-07-31T02:29:33;21.23;;;17.05;;
11346;SDS011;5728;42.722;23.258;2023-07-31T02:32:00;20.08;;;16.00;;
11346;SDS011;5728;42.722;23.258;2023-07-31T02:34:28;20.88;;;16.70;;
11346;SDS011;5728;42.722;23.258;2023-07-31T02:36:55;25.88;;;17.27;;
11346;SDS011;5728;42.722;23.258;2023-07-31T02:39:22;19.75;;;17.08;;
11346;SDS011;5728;42.722;23.258;2023-07-31T02:41:48;19.17;;;16.13;;
11346;SDS011;5728;42.722;23.258;2023-07-31T02:44:15;18.95;;;15.63;;
11346;SDS011;5728;42.722;23.258;2023-07-31T02:46:42;21.42;;;16.70;;
11346;SDS011;5728;42.722;23.258;2023-07-31T02:49:09;22.38;;;17.83;;
11346;SDS011;5728;42.722;23.258;2023-07-31T02:51:37;19.60;;;16.83;;
11346;SDS011;5728;42.722;23.258;2023-07-31T02:54:04;18.20;;;15.70;;
11346;SDS011;5728;42.722;23.258;2023-07-31T02:56:31;19.33;;;16.13;;
11346;SDS011;5728;42.722;23.258;2023-07-31T02:58:57;22.52;;;17.42;;
11346;SDS011;5728;42.722;23.258;2023-07-31T03:01:24;19.98;;;16.75;;
11346;SDS011;5728;42.722;23.258;2023-07-31T03:03:51;21.33;;;17.90;;
11346;SDS011;5728;42.722;23.258;2023-07-31T03:06:18;20.42;;;17.08;;
11346;SDS011;5728;42.722;23.258;2023-07-31T03:08:46;22.10;;;16.40;;
11346;SDS011;5728;42.722;23.258;2023-07-31T03:11:13;23.20;;;17.52;;
11346;SDS011;5728;42.722;23.258;2023-07-31T03:13:40;21.15;;;16.60;;
11346;SDS011;5728;42.722;23.258;2023-07-31T03:16:06;21.45;;;16.58;;
11346;SDS011;5728;42.722;23.258;2023-07-31T03:18:34;20.02;;;17.50;;
11346;SDS011;5728;42.722;23.258;2023-07-31T03:21:01;23.02;;;17.10;;
11346;SDS011;5728;42.722;23.258;2023-07-31T03:23:28;22.50;;;18.23;;
11346;SDS011;5728;42.722;23.258;2023-07-31T03:25:56;20.90;;;16.98;;
11346;SDS011;5728;42.722;23.258;2023-07-31T03:28:23;20.67;;;16.65;;
11346;SDS011;5728;42.722;23.258;2023-07-31T03:30:50;21.40;;;15.55;;
11346;SDS011;5728;42.722;23.258;2023-07-31T03:33:17;20.63;;;16.33;;
11346;SDS011;5728;42.722;23.258;2023-07-31T03:35:44;22.75;;;16.25;;
11346;SDS011;5728;42.722;23.258;2023-07-31T03:38:11;20.77;;;16.52;;
11346;SDS011;5728;42.722;23.258;2023-07-31T03:40:38;23.15;;;18.40;;
11346;SDS011;5728;42.722;23.258;2023-07-31T03:43:06;20.00;;;16.80;;
11346;SDS011;5728;42.722;23.258;2023-07-31T03:45:33;24.67;;;17.45;;
11346;SDS011;5728;42.722;23.258;2023-07-31T03:48:00;26.23;;;16.50;;
11346;SDS011;5728;42.722;23.258;2023-07-31T03:50:27;22.42;;;17.73;;
11346;SDS011;5728;42.722;23.258;2023-07-31T03:52:54;25.75;;;18.85;;
11346;SDS011;5728;42.722;23.258;2023-07-31T03:55:20;25.23;;;18.60;;
11346;SDS011;5728;42.722;23.258;2023-07-31T03:57:47;21.20;;;16.05;;
11346;SDS011;5728;42.722;23.258;2023-07-31T04:00:16;26.92;;;19.63;;
11346;SDS011;5728;42.722;23.258;2023-07-31T04:02:43;22.48;;;18.45;;
11346;SDS011;5728;42.722;23.258;2023-07-31T04:05:09;23.05;;;17.08;;
11346;SDS011;5728;42.722;23.258;2023-07-31T04:07:36;28.48;;;19.25;;
11346;SDS011;5728;42.722;23.258;2023-07-31T04:10:04;27.42;;;20.02;;
11346;SDS011;5728;42.722;23.258;2023-07-31T04:12:31;29.05;;;20.77;;
11346;SDS011;5728;42.722;23.258;2023-07-31T04:14:57;25.95;;;18.83;;
11346;SDS011;5728;42.722;23.258;2023-07-31T04:17:26;26.42;;;20.35;;
11346;SDS011;5728;42.722;23.258;2023-07-31T04:19:52;25.08;;;18.08;;
11346;SDS011;5728;42.722;23.258;2023-07-31T04:22:20;23.15;;;17.35;;
11346;SDS011;5728;42.722;23.258;2023-07-31T04:24:46;22.45;;;17.38;;
11346;SDS011;5728;42.722;23.258;2023-07-31T04:27:13;22.40;;;18.15;;
11346;SDS011;5728;42.722;23.258;2023-07-31T04:29:40;21.20;;;17.17;;
11346;SDS011;5728;42.722;23.258;2023-07-31T04:32:07;25.30;;;19.40;;
11346;SDS011;5728;42.722;23.258;2023-07-31T04:34:35;28.08;;;18.30;;
11346;SDS011;5728;42.722;23.258;2023-07-31T04:37:03;24.83;;;18.35;;
11346;SDS011;5728;42.722;23.258;2023-07-31T04:39:30;26.13;;;17.85;;
11346;SDS011;5728;42.722;23.258;2023-07-31T04:41:56;25.08;;;17.10;;
11346;SDS011;5728;42.722;23.258;2023-07-31T04:44:23;21.50;;;15.07;;
11346;SDS011;5728;42.722;23.258;2023-07-31T04:46:50;20.73;;;15.50;;
11346;SDS011;5728;42.722;23.258;2023-07-31T04:49:16;24.73;;;15.77;;
11346;SDS011;5728;42.722;23.258;2023-07-31T04:51:45;21.08;;;14.90;;
11346;SDS011;5728;42.722;23.258;2023-07-31T04:54:12;19.70;;;15.82;;
11346;SDS011;5728;42.722;23.258;2023-07-31T04:56:40;21.05;;;15.45;;
11346;SDS011;5728;42.722;23.258;2023-07-31T04:59:06;20.08;;;14.77;;
11346;SDS011;5728;42.722;23.258;2023-07-31T05:01:36;20.52;;;15.02;;
11346;SDS011;5728;42.722;23.258;2023-07-31T05:04:03;17.52;;;14.07;;
11346;SDS011;5728;42.722;23.258;2023-07-31T05:06:30;20.20;;;14.35;;
11346;SDS011;5728;42.722;23.258;2023-07-31T05:08:58;16.55;;;13.95;;
11346;SDS011;5728;42.722;23.258;2023-07-31T05:11:25;15.95;;;13.10;;
11346;SDS011;5728;42.722;23.258;2023-07-31T05:13:52;16.17;;;13.02;;
11346;SDS011;5728;42.722;23.258;2023-07-31T05:16:18;16.55;;;13.75;;
11346;SDS011;5728;42.722;23.258;2023-07-31T05:18:45;17.38;;;13.60;;
11346;SDS011;5728;42.722;23.258;2023-07-31T05:21:12;17.65;;;14.45;;
11346;SDS011;5728;42.722;23.258;2023-07-31T05:23:38;13.27;;;10.73;;
11346;SDS011;5728;42.722;23.258;2023-07-31T05:26:07;12.95;;;11.35;;
11346;SDS011;5728;42.722;23.258;2023-07-31T05:28:35;13.75;;;11.93;;
11346;SDS011;5728;42.722;23.258;2023-07-31T05:31:02;12.98;;;11.05;;
11346;SDS011;5728;42.722;23.258;2023-07-31T05:33:29;10.60;;;9.25;;
11346;SDS011;5728;42.722;23.258;2023-07-31T05:35:56;12.00;;;10.50;;
11346;SDS011;5728;42.722;23.258;2023-07-31T05:38:23;10.40;;;8.82;;
11346;SDS011;5728;42.722;23.258;2023-07-31T05:40:50;10.00;;;9.02;;
11346;SDS011;5728;42.722;23.258;2023-07-31T05:43:18;9.20;;;8.23;;
11346;SDS011;5728;42.722;23.258;2023-07-31T05:45:45;8.90;;;7.55;;
11346;SDS011;5728;42.722;23.258;2023-07-31T05:48:11;8.65;;;7.75;;
11346;SDS011;5728;42.722;23.258;2023-07-31T05:50:38;8.82;;;6.45;;
11346;SDS011;5728;42.722;23.258;2023-07-31T05:53:05;7.65;;;6.57;;
11346;SDS011;5728;42.722;23.258;2023-07-31T05:55:33;7.43;;;6.38;;
11346;SDS011;5728;42.722;23.258;2023-07-31T05:58:00;9.38;;;6.63;;
11346;SDS011;5728;42.722;23.258;2023-07-31T06:00:28;7.63;;;6.88;;
11346;SDS011;5728;42.722;23.258;2023-07-31T06:02:55;7.55;;;6.15;;
11346;SDS011;5728;42.722;23.258;2023-07-31T06:05:21;7.13;;;5.72;;
11346;SDS011;5728;42.722;23.258;2023-07-31T06:07:48;8.80;;;6.40;;
11346;SDS011;5728;42.722;23.258;2023-07-31T06:10:15;7.10;;;5.57;;
11346;SDS011;5728;42.722;23.258;2023-07-31T06:12:42;7.00;;;5.18;;
11346;SDS011;5728;42.722;23.258;2023-07-31T06:15:09;6.05;;;4.68;;
11346;SDS011;5728;42.722;23.258;2023-07-31T06:17:37;4.97;;;4.40;;
11346;SDS011;5728;42.722;23.258;2023-07-31T06:20:05;4.38;;;3.97;;
11346;SDS011;5728;42.722;23.258;2023-07-31T06:22:33;4.90;;;4.38;;
11346;SDS011;5728;42.722;23.258;2023-07-31T06:25:00;6.65;;;4.28;;
11346;SDS011;5728;42.722;23.258;2023-07-31T06:27:26;6.65;;;4.80;;
11346;SDS011;5728;42.722;23.258;2023-07-31T06:29:53;6.90;;;4.60;;
11346;SDS011;5728;42.722;23.258;2023-07-31T06:32:20;4.93;;;4.35;;
11346;SDS011;5728;42.722;23.258;2023-07-31T06:34:48;4.32;;;3.92;;
11346;SDS011;5728;42.722;23.258;2023-07-31T06:37:16;5.10;;;4.60;;
11346;SDS011;5728;42.722;23.258;2023-07-31T06:39:42;4.78;;;3.85;;
11346;SDS011;5728;42.722;23.258;2023-07-31T06:42:10;4.47;;;4.03;;
11346;SDS011;5728;42.722;23.258;2023-07-31T06:44:37;8.88;;;3.70;;
11346;SDS011;5728;42.722;23.258;2023-07-31T06:47:04;6.60;;;4.25;;
11346;SDS011;5728;42.722;23.258;2023-07-31T06:49:33;3.40;;;3.05;;
11346;SDS011;5728;42.722;23.258;2023-07-31T06:52:02;3.95;;;3.47;;
11346;SDS011;5728;42.722;23.258;2023-07-31T06:54:28;5.85;;;3.40;;
11346;SDS011;5728;42.722;23.258;2023-07-31T06:56:55;7.50;;;3.67;;
11346;SDS011;5728;42.722;23.258;2023-07-31T06:59:22;6.90;;;3.90;;
11346;SDS011;5728;42.722;23.258;2023-07-31T07:01:49;3.85;;;3.15;;
11346;SDS011;5728;42.722;23.258;2023-07-31T07:04:15;4.15;;;3.75;;
11346;SDS011;5728;42.722;23.258;2023-07-31T07:06:42;4.38;;;3.30;;
11346;SDS011;5728;42.722;23.258;2023-07-31T07:09:10;4.15;;;3.05;;
11346;SDS011;5728;42.722;23.258;2023-07-31T07:11:37;3.70;;;3.33;;
11346;SDS011;5728;42.722;23.258;2023-07-31T07:14:04;4.03;;;2.78;;
11346;SDS011;5728;42.722;23.258;2023-07-31T07:16:30;3.70;;;2.90;;
11346;SDS011;5728;42.722;23.258;2023-07-31T07:18:57;3.83;;;2.67;;
11346;SDS011;5728;42.722;23.258;2023-07-31T07:21:24;2.88;;;2.67;;
11346;SDS011;5728;42.722;23.258;2023-07-31T07:23:50;4.05;;;3.28;;
11346;SDS011;5728;42.722;23.258;2023-07-31T07:26:19;3.42;;;3.13;;
11346;SDS011;5728;42.722;23.258;2023-07-31T07:28:46;3.78;;;3.40;;
11346;SDS011;5728;42.722;23.258;2023-07-31T07:31:12;3.63;;;3.15;;
11346;SDS011;5728;42.722;23.258;2023-07-31T07:33:39;3.20;;;2.80;;
11346;SDS011;5728;42.722;23.258;2023-07-31T07:36:06;5.22;;;3.38;;
11346;SDS011;5728;42.722;23.258;2023-07-31T07:38:34;3.88;;;3.17;;
11346;SDS011;5728;42.722;23.258;2023-07-31T07:41:02;3.47;;;3.17;;
11346;SDS011;5728;42.722;23.258;2023-07-31T07:43:30;3.58;;;3.20;;
11346;SDS011;5728;42.722;23.258;2023-07-31T07:45:57;5.15;;;3.10;;
11346;SDS011;5728;42.722;23.258;2023-07-31T07:48:23;4.07;;;3.17;;
11346;SDS011;5728;42.722;23.258;2023-07-31T07:50:51;10.30;;;2.42;;
11346;SDS011;5728;42.722;23.258;2023-07-31T07:53:18;7.32;;;2.78;;
11346;SDS011;5728;42.722;23.258;2023-07-31T07:55:44;3.90;;;3.30;;
11346;SDS011;5728;42.722;23.258;2023-07-31T07:58:11;3.47;;;3.17;;
11346;SDS011;5728;42.722;23.258;2023-07-31T08:00:39;4.85;;;3.13;;
11346;SDS011;5728;42.722;23.258;2023-07-31T08:03:06;4.53;;;3.28;;
11346;SDS011;5728;42.722;23.258;2023-07-31T08:05:33;3.90;;;2.72;;
11346;SDS011;5728;42.722;23.258;2023-07-31T08:08:00;2.65;;;2.05;;
11346;SDS011;5728;42.722;23.258;2023-07-31T08:10:26;2.88;;;2.53;;
11346;SDS011;5728;42.722;23.258;2023-07-31T08:12:53;4.97;;;4.50;;
11346;SDS011;5728;42.722;23.258;2023-07-31T08:15:20;14.75;;;9.45;;
11346;SDS011;5728;42.722;23.258;2023-07-31T08:17:48;5.90;;;3.83;;
11346;SDS011;5728;42.722;23.258;2023-07-31T08:20:15;3.20;;;2.85;;
11346;SDS011;5728;42.722;23.258;2023-07-31T08:22:42;3.75;;;3.17;;
11346;SDS011;5728;42.722;23.258;2023-07-31T08:25:08;3.03;;;2.63;;
11346;SDS011;5728;42.722;23.258;2023-07-31T08:27:35;3.30;;;3.00;;
11346;SDS011;5728;42.722;23.258;2023-07-31T08:30:02;3.22;;;2.70;;
11346;SDS011;5728;42.722;23.258;2023-07-31T08:32:30;3.00;;;2.35;;
11346;SDS011;5728;42.722;23.258;2023-07-31T08:34:58;3.50;;;3.10;;
11346;SDS011;5728;42.722;23.258;2023-07-31T08:37:25;3.50;;;2.38;;
11346;SDS011;5728;42.722;23.258;2023-07-31T08:39:52;3.17;;;2.85;;
11346;SDS011;5728;42.722;23.258;2023-07-31T08:42:19;3.05;;;2.40;;
11346;SDS011;5728;42.722;23.258;2023-07-31T08:44:47;3.17;;;2.78;;
11346;SDS011;5728;42.722;23.258;2023-07-31T08:47:14;6.22;;;2.72;;
11346;SDS011;5728;42.722;23.258;2023-07-31T08:49:42;4.88;;;3.05;;
11346;SDS011;5728;42.722;23.258;2023-07-31T08:52:13;2.67;;;2.28;;
11346;SDS011;5728;42.722;23.258;2023-07-31T08:54:41;2.25;;;1.95;;
11346;SDS011;5728;42.722;23.258;2023-07-31T08:57:08;2.97;;;2.30;;
11346;SDS011;5728;42.722;23.258;2023-07-31T08:59:36;6.28;;;2.72;;
11346;SDS011;5728;42.722;23.258;2023-07-31T09:02:05;2.60;;;2.40;;
11346;SDS011;5728;42.722;23.258;2023-07-31T09:04:33;3.38;;;2.92;;
11346;SDS011;5728;42.722;23.258;2023-07-31T09:07:01;2.80;;;2.47;;
11346;SDS011;5728;42.722;23.258;2023-07-31T09:09:31;3.83;;;2.60;;
11346;SDS011;5728;42.722;23.258;2023-07-31T09:11:58;3.00;;;2.63;;
11346;SDS011;5728;42.722;23.258;2023-07-31T09:14:25;3.13;;;2.63;;
11346;SDS011;5728;42.722;23.258;2023-07-31T09:16:53;5.28;;;2.72;;
11346;SDS011;5728;42.722;23.258;2023-07-31T09:19:27;2.97;;;2.70;;
11346;SDS011;5728;42.722;23.258;2023-07-31T09:21:56;3.58;;;2.85;;
11346;SDS011;5728;42.722;23.258;2023-07-31T09:24:26;7.80;;;3.03;;
11346;SDS011;5728;42.722;23.258;2023-07-31T09:26:55;6.15;;;2.88;;
11346;SDS011;5728;42.722;23.258;2023-07-31T09:29:23;3.55;;;2.33;;
11346;SDS011;5728;42.722;23.258;2023-07-31T09:31:52;2.55;;;2.25;;
11346;SDS011;5728;42.722;23.258;2023-07-31T09:34:19;2.85;;;2.55;;
11346;SDS011;5728;42.722;23.258;2023-07-31T09:36:54;2.60;;;2.35;;
11346;SDS011;5728;42.722;23.258;2023-07-31T09:39:21;2.30;;;2.00;;
11346;SDS011;5728;42.722;23.258;2023-07-31T09:41:53;4.55;;;3.92;;
11346;SDS011;5728;42.722;23.258;2023-07-31T09:44:22;4.25;;;2.80;;
11346;SDS011;5728;42.722;23.258;2023-07-31T09:47:04;3.13;;;2.13;;
11346;SDS011;5728;42.722;23.258;2023-07-31T09:49:31;3.15;;;2.88;;
11346;SDS011;5728;42.722;23.258;2023-07-31T09:51:58;6.13;;;2.40;;
11346;SDS011;5728;42.722;23.258;2023-07-31T09:54:25;4.78;;;1.92;;
11346;SDS011;5728;42.722;23.258;2023-07-31T09:56:52;2.95;;;1.88;;
11346;SDS011;5728;42.722;23.258;2023-07-31T09:59:22;4.43;;;2.05;;
11346;SDS011;5728;42.722;23.258;2023-07-31T10:01:49;3.70;;;2.28;;
11346;SDS011;5728;42.722;23.258;2023-07-31T10:04:16;2.45;;;2.25;;
11346;SDS011;5728;42.722;23.258;2023-07-31T10:06:46;3.53;;;1.98;;
11346;SDS011;5728;42.722;23.258;2023-07-31T10:09:16;2.22;;;1.92;;
11346;SDS011;5728;42.722;23.258;2023-07-31T10:11:46;3.08;;;1.80;;
11346;SDS011;5728;42.722;23.258;2023-07-31T10:14:18;2.92;;;2.00;;
11346;SDS011;5728;42.722;23.258;2023-07-31T10:16:46;2.53;;;2.10;;
11346;SDS011;5728;42.722;23.258;2023-07-31T10:19:13;2.35;;;2.15;;
11346;SDS011;5728;42.722;23.258;2023-07-31T10:21:41;2.28;;;2.08;;
11346;SDS011;5728;42.722;23.258;2023-07-31T10:24:09;2.03;;;1.80;;
11346;SDS011;5728;42.722;23.258;2023-07-31T10:26:36;2.20;;;2.00;;
11346;SDS011;5728;42.722;23.258;2023-07-31T10:29:05;2.08;;;1.88;;
11346;SDS011;5728;42.722;23.258;2023-07-31T10:31:34;2.28;;;2.03;;
11346;SDS011;5728;42.722;23.258;2023-07-31T10:34:02;2.08;;;1.88;;
11346;SDS011;5728;42.722;23.258;2023-07-31T10:36:29;2.35;;;1.85;;
11346;SDS011;5728;42.722;23.258;2023-07-31T10:38:56;1.75;;;1.65;;
11346;SDS011;5728;42.722;23.258;2023-07-31T10:41:28;2.28;;;2.08;;
11346;SDS011;5728;42.722;23.258;2023-07-31T10:43:57;3.28;;;2.10;;
11346;SDS011;5728;42.722;23.258;2023-07-31T10:46:24;3.17;;;1.92;;
11346;SDS011;5728;42.722;23.258;2023-07-31T10:48:58;2.03;;;1.83;;
11346;SDS011;5728;42.722;23.258;2023-07-31T10:51:32;3.03;;;1.65;;
11346;SDS011;5728;42.722;23.258;2023-07-31T10:56:44;1.60;;;1.50;;
11346;SDS011;5728;42.722;23.258;2023-07-31T10:59:12;2.42;;;2.10;;
11346;SDS011;5728;42.722;23.258;2023-07-31T11:01:51;2.05;;;1.85;;
11346;SDS011;5728;42.722;23.258;2023-07-31T11:04:24;2.38;;;1.90;;
11346;SDS011;5728;42.722;23.258;2023-07-31T11:06:55;4.20;;;1.73;;
11346;SDS011;5728;42.722;23.258;2023-07-31T11:09:24;3.55;;;1.85;;
11346;SDS011;5728;42.722;23.258;2023-07-31T11:11:53;2.97;;;2.13;;
11346;SDS011;5728;42.722;23.258;2023-07-31T11:14:20;4.47;;;2.25;;
11346;SDS011;5728;42.722;23.258;2023-07-31T11:16:49;4.65;;;2.10;;
11346;SDS011;5728;42.722;23.258;2023-07-31T11:19:20;1.70;;;1.60;;
11346;SDS011;5728;42.722;23.258;2023-07-31T11:21:49;2.25;;;1.90;;
11346;SDS011;5728;42.722;23.258;2023-07-31T11:24:16;2.45;;;2.00;;
11346;SDS011;5728;42.722;23.258;2023-07-31T11:26:47;2.40;;;1.90;;
11346;SDS011;5728;42.722;23.258;2023-07-31T11:29:16;2.58;;;2.22;;
11346;SDS011;5728;42.722;23.258;2023-07-31T11:31:43;3.67;;;3.13;;
11346;SDS011;5728;42.722;23.258;2023-07-31T11:34:10;2.20;;;2.00;;
11346;SDS011;5728;42.722;23.258;2023-07-31T11:36:37;3.28;;;2.20;;
11346;SDS011;5728;42.722;23.258;2023-07-31T11:39:08;3.25;;;2.60;;
11346;SDS011;5728;42.722;23.258;2023-07-31T11:41:36;2.88;;;2.50;;
11346;SDS011;5728;42.722;23.258;2023-07-31T11:44:06;2.40;;;2.20;;
11346;SDS011;5728;42.722;23.258;2023-07-31T11:46:33;3.10;;;2.80;;
11346;SDS011;5728;42.722;23.258;2023-07-31T11:49:00;3.75;;;3.00;;
11346;SDS011;5728;42.722;23.258;2023-07-31T11:51:27;3.97;;;2.92;;
11346;SDS011;5728;42.722;23.258;2023-07-31T11:53:56;2.63;;;2.42;;
11346;SDS011;5728;42.722;23.258;2023-07-31T11:56:26;4.25;;;3.50;;
11346;SDS011;5728;42.722;23.258;2023-07-31T11:58:54;4.22;;;3.75;;
11346;SDS011;5728;42.722;23.258;2023-07-31T12:01:23;4.53;;;4.13;;
11346;SDS011;5728;42.722;23.258;2023-07-31T12:03:51;4.18;;;3.78;;
11346;SDS011;5728;42.722;23.258;2023-07-31T12:06:19;4.57;;;4.18;;
11346;SDS011;5728;42.722;23.258;2023-07-31T12:08:46;6.00;;;4.07;;
11346;SDS011;5728;42.722;23.258;2023-07-31T12:11:14;6.43;;;4.05;;
11346;SDS011;5728;42.722;23.258;2023-07-31T12:13:44;4.30;;;3.90;;
11346;SDS011;5728;42.722;23.258;2023-07-31T12:16:11;6.97;;;5.30;;
11346;SDS011;5728;42.722;23.258;2023-07-31T12:18:38;5.47;;;4.55;;
11346;SDS011;5728;42.722;23.258;2023-07-31T12:21:06;4.50;;;4.10;;
11346;SDS011;5728;42.722;23.258;2023-07-31T12:23:35;9.90;;;5.35;;
11346;SDS011;5728;42.722;23.258;2023-07-31T12:26:03;10.40;;;9.27;;
11346;SDS011;5728;42.722;23.258;2023-07-31T12:28:34;5.70;;;3.95;;
11346;SDS011;5728;42.722;23.258;2023-07-31T12:31:03;4.53;;;3.85;;
11346;SDS011;5728;42.722;23.258;2023-07-31T12:33:31;6.10;;;3.97;;
11346;SDS011;5728;42.722;23.258;2023-07-31T12:36:00;4.75;;;4.25;;
11346;SDS011;5728;42.722;23.258;2023-07-31T12:38:27;4.95;;;4.45;;
11346;SDS011;5728;42.722;23.258;2023-07-31T12:40:54;4.43;;;3.80;;
11346;SDS011;5728;42.722;23.258;2023-07-31T12:43:21;9.80;;;4.63;;
11346;SDS011;5728;42.722;23.258;2023-07-31T12:45:48;4.78;;;3.72;;
11346;SDS011;5728;42.722;23.258;2023-07-31T12:48:16;5.65;;;5.05;;
11346;SDS011;5728;42.722;23.258;2023-07-31T12:50:43;8.40;;;5.22;;
11346;SDS011;5728;42.722;23.258;2023-07-31T12:53:10;4.68;;;3.85;;
11346;SDS011;5728;42.722;23.258;2023-07-31T12:55:37;9.32;;;4.70;;
11346;SDS011;5728;42.722;23.258;2023-07-31T12:58:04;5.45;;;4.65;;
11346;SDS011;5728;42.722;23.258;2023-07-31T13:00:30;5.55;;;4.68;;
11346;SDS011;5728;42.722;23.258;2023-07-31T13:02:57;4.82;;;3.40;;
11346;SDS011;5728;42.722;23.258;2023-07-31T13:05:25;4.43;;;3.92;;
11346;SDS011;5728;42.722;23.258;2023-07-31T13:07:52;5.78;;;4.28;;
11346;SDS011;5728;42.722;23.258;2023-07-31T13:10:19;8.68;;;3.92;;
11346;SDS011;5728;42.722;23.258;2023-07-31T13:12:47;3.53;;;3.17;;
11346;SDS011;5728;42.722;23.258;2023-07-31T13:15:13;6.25;;;3.50;;
11346;SDS011;5728;42.722;23.258;2023-07-31T13:17:41;4.20;;;3.80;;
11346;SDS011;5728;42.722;23.258;2023-07-31T13:20:08;3.85;;;3.50;;
11346;SDS011;5728;42.722;23.258;2023-07-31T13:22:36;5.03;;;3.20;;
11346;SDS011;5728;42.722;23.258;2023-07-31T13:25:03;3.97;;;3.30;;
11346;SDS011;5728;42.722;23.258;2023-07-31T13:27:31;3.72;;;3.42;;
11346;SDS011;5728;42.722;23.258;2023-07-31T13:29:58;4.20;;;3.60;;
11346;SDS011;5728;42.722;23.258;2023-07-31T13:32:25;5.32;;;3.78;;
11346;SDS011;5728;42.722;23.258;2023-07-31T13:34:52;6.40;;;3.75;;
11346;SDS011;5728;42.722;23.258;2023-07-31T13:37:19;4.32;;;3.47;;
11346;SDS011;5728;42.722;23.258;2023-07-31T13:39:47;10.70;;;8.75;;
11346;SDS011;5728;42.722;23.258;2023-07-31T13:42:14;7.22;;;4.65;;
11346;SDS011;5728;42.722;23.258;2023-07-31T13:44:41;6.10;;;5.47;;
11346;SDS011;5728;42.722;23.258;2023-07-31T13:47:08;5.57;;;3.40;;
11346;SDS011;5728;42.722;23.258;2023-07-31T13:49:36;3.53;;;3.22;;
11346;SDS011;5728;42.722;23.258;2023-07-31T13:52:04;7.93;;;3.22;;
11346;SDS011;5728;42.722;23.258;2023-07-31T13:54:31;3.65;;;3.35;;
11346;SDS011;5728;42.722;23.258;2023-07-31T13:56:59;3.60;;;3.30;;
11346;SDS011;5728;42.722;23.258;2023-07-31T13:59:26;3.47;;;3.17;;
11346;SDS011;5728;42.722;23.258;2023-07-31T14:01:53;4.03;;;3.40;;
11346;SDS011;5728;42.722;23.258;2023-07-31T14:04:20;3.58;;;3.28;;
11346;SDS011;5728;42.722;23.258;2023-07-31T14:06:47;4.13;;;3.10;;
11346;SDS011;5728;42.722;23.258;2023-07-31T14:09:15;4.13;;;3.33;;
11346;SDS011;5728;42.722;23.258;2023-07-31T14:11:42;4.60;;;3.40;;
11346;SDS011;5728;42.722;23.258;2023-07-31T14:14:11;3.67;;;3.30;;
11346;SDS011;5728;42.722;23.258;2023-07-31T14:16:38;3.72;;;2.88;;
11346;SDS011;5728;42.722;23.258;2023-07-31T14:19:05;3.50;;;3.20;;
11346;SDS011;5728;42.722;23.258;2023-07-31T14:21:33;4.57;;;3.40;;
11346;SDS011;5728;42.722;23.258;2023-07-31T14:24:00;18.05;;;3.55;;
11346;SDS011;5728;42.722;23.258;2023-07-31T14:26:27;3.33;;;3.03;;
11346;SDS011;5728;42.722;23.258;2023-07-31T14:28:53;5.68;;;3.08;;
11346;SDS011;5728;42.722;23.258;2023-07-31T14:31:22;10.27;;;4.38;;
11346;SDS011;5728;42.722;23.258;2023-07-31T14:33:49;3.40;;;3.10;;
11346;SDS011;5728;42.722;23.258;2023-07-31T14:36:15;3.53;;;3.15;;
11346;SDS011;5728;42.722;23.258;2023-07-31T14:38:42;2.85;;;2.63;;
11346;SDS011;5728;42.722;23.258;2023-07-31T14:41:09;3.15;;;2.85;;
11346;SDS011;5728;42.722;23.258;2023-07-31T14:43:36;5.18;;;3.15;;